Time;durP1;ratioP1;P1;durP2;ratioP2;P2;SDS_P1;SDS_P2;PMS_P1;PMS_P2;Temp;Humidity;BMP_temperature;BMP_pressure;BME280_temperature;BME280_humidity;BME280_pressure;Samples;Min_cycle;Max_cycle;Signal;HPM_P1;HPM_P2
2021/12/29 00:00:40;;;;;;;;;;;;;;;;;;5324695;28;19946;-67
2021/12/29 00:03:11;;;;;;;;;;;;;;;;;;5325828;28;19995;-67
2021/12/29 00:05:42;;;;;;;;;;;;;;;;;;5324512;28;19911;-67
2021/12/29 00:08:13;;;;;;;;;;;;;;;;;;5325363;28;19910;-68
2021/12/29 00:10:46;;;;;;;;;;;;;;;;;;5324827;28;19903;-68
2021/12/29 00:13:19;;;;;;;;;;;;;;;;;;5324645;28;19910;-67
2021/12/29 00:15:57;;;;;;;;;;;;;;;;;;5324727;28;19911;-66
2021/12/29 00:18:28;;;;;;;;;;;;;;;;;;5325286;28;19998;-67
2021/12/29 00:20:59;;;;;;;;;;;;;;;;;;5324073;28;20040;-68
2021/12/29 00:23:30;;;;;;;;;;;;;;;;;;5325606;28;19910;-68
2021/12/29 00:26:01;;;;;;;;;;;;;;;;;;5324098;28;19911;-67
2021/12/29 00:28:32;;;;;;;;;;;;;;;;;;5325246;28;20447;-67
2021/12/29 00:31:03;;;;;;;;;;;;;;;;;;5324654;28;19910;-67
2021/12/29 00:33:34;;;;;;;;;;;;;;;;;;5324419;28;19911;-68
2021/12/29 00:36:05;;;;;;;;;;;;;;;;;;5324706;28;19965;-67
2021/12/29 00:38:36;;;;;;;;;;;;;;;;;;5324994;28;20385;-67
2021/12/29 00:41:07;;;;;;;;;;;;;;;;;;5324169;28;19911;-67
2021/12/29 00:43:38;;;;;;;;;;;;;;;;;;5324363;28;19904;-67
2021/12/29 00:46:12;;;;;;;;;;;;;;;;;;5325011;28;20398;-67
2021/12/29 00:48:44;;;;;;;;;;;;;;;;;;5323384;28;19916;-67
2021/12/29 00:51:15;;;;;;;;;;;;;;;;;;5324941;28;20289;-67
2021/12/29 00:53:46;;;;;;;;;;;;;;;;;;5324427;28;19904;-67
2021/12/29 00:56:17;;;;;;;;;;;;;;;;;;5323921;28;20006;-67
2021/12/29 00:58:49;;;;;;;;;;;;;;;;;;5324355;28;19903;-67
2021/12/29 01:01:20;;;;;;;;;;;;;;;;;;5323715;28;20348;-66
2021/12/29 01:03:51;;;;;;;;;;;;;;;;;;5324061;28;19952;-66
2021/12/29 01:06:22;;;;;;;;;;;;;;;;;;5323222;28;19900;-66
2021/12/29 01:08:53;;;;;;;;;;;;;;;;;;5322647;28;20339;-66
2021/12/29 01:11:24;;;;;;;;;;;;;;;;;;5324809;28;19903;-67
2021/12/29 01:13:55;;;;;;;;;;;;;;;;;;5323757;28;19939;-66
2021/12/29 01:19:03;;;;;;;;;;;;;;;;;;5324061;28;20277;-66
2021/12/29 01:21:34;;;;;;;;;;;;;;;;;;5324531;28;19911;-66
2021/12/29 01:24:05;;;;;;;;;;;;;;;;;;5323240;28;20415;-67
2021/12/29 01:26:36;;;;;;;;;;;;;;;;;;5324161;28;19927;-67
2021/12/29 01:29:08;;;;;;;;;;;;;;;;;;5324325;28;19904;-66
2021/12/29 01:31:39;;;;;;;;;;;;;;;;;;5323094;28;19910;-66
2021/12/29 01:34:10;;;;;;;;;;;;;;;;;;5328804;28;20334;-67
2021/12/29 01:36:41;;;;;;;;;;;;;;;;;;5327504;28;19911;-66
2021/12/29 01:39:12;;;;;;;;;;;;;;;;;;5328799;28;19994;-66
2021/12/29 01:41:43;;;;;;;;;;;;;;;;;;5328056;28;20385;-67
2021/12/29 01:44:14;;;;;;;;;;;;;;;;;;5327648;28;19926;-66
2021/12/29 01:46:45;;;;;;;;;;;;;;;;;;5328033;28;19904;-67
2021/12/29 01:49:16;;;;;;;;;;;;;;;;;;5328443;28;19919;-67
2021/12/29 01:51:50;;;;;;;;;;;;;;;;;;5327202;28;19948;-66
2021/12/29 01:54:24;;;;;;;;;;;;;;;;;;5328362;28;19911;-67
2021/12/29 01:56:56;;;;;;;;;;;;;;;;;;5327743;28;20317;-67
2021/12/29 01:59:27;;;;;;;;;;;;;;;;;;5327604;28;20259;-67
2021/12/29 02:01:58;;;;;;;;;;;;;;;;;;5327659;28;19919;-67
2021/12/29 02:04:29;;;;;;;;;;;;;;;;;;5327399;28;19927;-66
2021/12/29 02:07:00;;;;;;;;;;;;;;;;;;5327592;28;19998;-67
2021/12/29 02:09:31;;;;;;;;;;;;;;;;;;5327995;28;19903;-67
2021/12/29 02:12:02;;;;;;;;;;;;;;;;;;5326739;28;20351;-66
2021/12/29 02:14:33;;;;;;;;;;;;;;;;;;5327993;28;19904;-66
2021/12/29 02:17:04;;;;;;;;;;;;;;;;;;5327173;28;20278;-66
2021/12/29 02:19:42;;;;;;;;;;;;;;;;;;5327011;28;19931;-67
2021/12/29 02:22:19;;;;;;;;;;;;;;;;;;5328138;28;19904;-67
2021/12/29 02:24:55;;;;;;;;;;;;;;;;;;5327492;28;19903;-67
2021/12/29 02:27:26;;;;;;;;;;;;;;;;;;5326837;28;19908;-67
2021/12/29 02:29:57;;;;;;;;;;;;;;;;;;5326924;28;20330;-66
2021/12/29 02:32:28;;;;;;;;;;;;;;;;;;5327788;28;19904;-67
2021/12/29 02:34:59;;;;;;;;;;;;;;;;;;5326260;28;19904;-67
2021/12/29 02:37:30;;;;;;;;;;;;;;;;;;5327695;28;19908;-67
2021/12/29 02:40:01;;;;;;;;;;;;;;;;;;5326248;28;20349;-67
2021/12/29 02:42:39;;;;;;;;;;;;;;;;;;5327380;28;19939;-66
2021/12/29 02:45:10;;;;;;;;;;;;;;;;;;5326209;28;19990;-67
2021/12/29 02:47:41;;;;;;;;;;;;;;;;;;5325954;28;19998;-67
2021/12/29 02:50:16;;;;;;;;;;;;;;;;;;5327454;28;19904;-66
2021/12/29 02:52:47;;;;;;;;;;;;;;;;;;5326707;28;20350;-66
2021/12/29 02:55:18;;;;;;;;;;;;;;;;;;5326318;28;19904;-67
2021/12/29 02:57:49;;;;;;;;;;;;;;;;;;5326692;28;19904;-68
2021/12/29 03:00:20;;;;;;;;;;;;;;;;;;5327162;28;20011;-66
2021/12/29 03:02:51;;;;;;;;;;;;;;;;;;5325582;28;19910;-67
2021/12/29 03:05:25;;;;;;;;;;;;;;;;;;5326899;28;20304;-67
2021/12/29 03:07:56;;;;;;;;;;;;;;;;;;5325247;28;20300;-67
2021/12/29 03:10:27;;;;;;;;;;;;;;;;;;5326651;28;20400;-66
2021/12/29 03:12:58;;;;;;;;;;;;;;;;;;5326146;28;19917;-67
2021/12/29 03:15:29;;;;;;;;;;;;;;;;;;5325975;28;19957;-67
2021/12/29 03:18:00;;;;;;;;;;;;;;;;;;5325974;28;20284;-68
2021/12/29 03:20:31;;;;;;;;;;;;;;;;;;5326819;28;19935;-67
2021/12/29 03:23:02;;;;;;;;;;;;;;;;;;5325351;28;19953;-68
2021/12/29 03:25:33;;;;;;;;;;;;;;;;;;5326723;28;20403;-67
2021/12/29 03:28:04;;;;;;;;;;;;;;;;;;5325977;28;19907;-68
2021/12/29 03:30:35;;;;;;;;;;;;;;;;;;5325505;28;20282;-68
2021/12/29 03:33:07;;;;;;;;;;;;;;;;;;5326138;28;19904;-67
2021/12/29 03:35:38;;;;;;;;;;;;;;;;;;5325744;28;20011;-67
2021/12/29 03:38:09;;;;;;;;;;;;;;;;;;5325660;28;20315;-68
2021/12/29 03:40:41;;;;;;;;;;;;;;;;;;5325818;28;19972;-67
2021/12/29 03:43:12;;;;;;;;;;;;;;;;;;5325378;28;19942;-67
2021/12/29 03:45:44;;;;;;;;;;;;;;;;;;5325651;28;19927;-67
2021/12/29 03:48:15;;;;;;;;;;;;;;;;;;5326115;28;19955;-67
2021/12/29 03:50:47;;;;;;;;;;;;;;;;;;5324656;28;19984;-68
2021/12/29 03:53:18;;;;;;;;;;;;;;;;;;5325910;28;19903;-67
2021/12/29 03:55:50;;;;;;;;;;;;;;;;;;5324857;28;19911;-67
2021/12/29 03:58:21;;;;;;;;;;;;;;;;;;5325230;28;20255;-67
2021/12/29 04:00:52;;;;;;;;;;;;;;;;;;5325084;28;20347;-68
2021/12/29 04:03:23;;;;;;;;;;;;;;;;;;5325809;28;19964;-67
2021/12/29 04:05:54;;;;;;;;;;;;;;;;;;5324213;28;19910;-67
2021/12/29 04:08:25;;;;;;;;;;;;;;;;;;5325855;28;19910;-68
2021/12/29 04:10:56;;;;;;;;;;;;;;;;;;5325246;28;19918;-67
2021/12/29 04:13:27;;;;;;;;;;;;;;;;;;5324962;28;20366;-67
2021/12/29 04:15:58;;;;;;;;;;;;;;;;;;5324933;28;20010;-67
2021/12/29 04:18:30;;;;;;;;;;;;;;;;;;5324691;28;20350;-67
2021/12/29 04:21:02;;;;;;;;;;;;;;;;;;5325006;28;19911;-68
2021/12/29 04:23:34;;;;;;;;;;;;;;;;;;5325321;28;19910;-67
2021/12/29 04:26:05;;;;;;;;;;;;;;;;;;5324077;28;19903;-67
2021/12/29 04:28:36;;;;;;;;;;;;;;;;;;5325062;28;19907;-67
2021/12/29 04:31:08;;;;;;;;;;;;;;;;;;5324940;28;19904;-68
2021/12/29 04:33:39;;;;;;;;;;;;;;;;;;5323952;28;20370;-67
2021/12/29 04:36:10;;;;;;;;;;;;;;;;;;5325225;28;19961;-67
2021/12/29 04:38:41;;;;;;;;;;;;;;;;;;5324520;28;19915;-67
2021/12/29 04:41:12;;;;;;;;;;;;;;;;;;5324240;28;19908;-67
2021/12/29 04:43:43;;;;;;;;;;;;;;;;;;5324618;28;19911;-69
2021/12/29 04:46:17;;;;;;;;;;;;;;;;;;5324346;28;19991;-67
2021/12/29 04:48:58;;;;;;;;;;;;;;;;;;5324093;28;19950;-68
2021/12/29 04:51:35;;;;;;;;;;;;;;;;;;5325153;28;19904;-67
2021/12/29 04:54:06;;;;;;;;;;;;;;;;;;5323500;28;19943;-67
2021/12/29 04:56:37;;;;;;;;;;;;;;;;;;5324277;28;20365;-68
2021/12/29 04:59:08;;;;;;;;;;;;;;;;;;5324996;28;19904;-67
2021/12/29 05:01:39;;;;;;;;;;;;;;;;;;5323237;28;19904;-68
2021/12/29 05:04:12;;;;;;;;;;;;;;;;;;5324821;28;19949;-68
2021/12/29 05:09:33;;;;;;;;;;;;;;;;;;5324055;28;19904;-68
2021/12/29 05:12:04;;;;;;;;;;;;;;;;;;5324301;28;20255;-67
2021/12/29 05:14:35;;;;;;;;;;;;;;;;;;5323769;28;19908;-67
2021/12/29 05:17:06;;;;;;;;;;;;;;;;;;5323772;28;20010;-67
2021/12/29 05:19:37;;;;;;;;;;;;;;;;;;5324149;28;19957;-67
2021/12/29 05:22:08;;;;;;;;;;;;;;;;;;5323851;28;19908;-67
2021/12/29 05:24:39;;;;;;;;;;;;;;;;;;5323902;28;20355;-67
2021/12/29 05:27:10;;;;;;;;;;;;;;;;;;5324535;28;19904;-67
2021/12/29 05:29:42;;;;;;;;;;;;;;;;;;5323065;28;19911;-68
2021/12/29 05:32:13;;;;;;;;;;;;;;;;;;5324660;28;19904;-67
2021/12/29 05:34:44;;;;;;;;;;;;;;;;;;5323721;28;20002;-68
2021/12/29 05:37:15;;;;;;;;;;;;;;;;;;5323622;28;19978;-67
2021/12/29 05:39:46;;;;;;;;;;;;;;;;;;5323771;28;19908;-67
2021/12/29 05:42:17;;;;;;;;;;;;;;;;;;5324621;28;19911;-68
2021/12/29 05:44:48;;;;;;;;;;;;;;;;;;5322969;28;20235;-67
2021/12/29 05:47:19;;;;;;;;;;;;;;;;;;5324155;28;20368;-67
2021/12/29 05:49:50;;;;;;;;;;;;;;;;;;5323026;28;19907;-67
2021/12/29 05:52:21;;;;;;;;;;;;;;;;;;5324237;28;20002;-67
2021/12/29 05:54:52;;;;;;;;;;;;;;;;;;5323788;28;19904;-68
2021/12/29 05:57:23;;;;;;;;;;;;;;;;;;5323303;28;20354;-68
2021/12/29 05:59:54;;;;;;;;;;;;;;;;;;5323734;28;19904;-68
2021/12/29 06:02:26;;;;;;;;;;;;;;;;;;5324070;28;19908;-67
2021/12/29 06:04:57;;;;;;;;;;;;;;;;;;5322692;28;19973;-68
2021/12/29 06:07:28;;;;;;;;;;;;;;;;;;5324349;28;19903;-67
2021/12/29 06:09:59;;;;;;;;;;;;;;;;;;5323490;28;19943;-68
2021/12/29 06:12:30;;;;;;;;;;;;;;;;;;5323460;28;19911;-68
2021/12/29 06:15:01;;;;;;;;;;;;;;;;;;5323485;28;19904;-68
2021/12/29 06:17:32;;;;;;;;;;;;;;;;;;5324224;28;19911;-68
2021/12/29 06:20:03;;;;;;;;;;;;;;;;;;5326369;28;20386;-68
2021/12/29 06:22:34;;;;;;;;;;;;;;;;;;5327949;28;20002;-68
2021/12/29 06:25:05;;;;;;;;;;;;;;;;;;5326576;28;19910;-67
2021/12/29 06:27:36;;;;;;;;;;;;;;;;;;5327476;28;19908;-67
2021/12/29 06:30:08;;;;;;;;;;;;;;;;;;5327835;28;20325;-68
2021/12/29 06:32:39;;;;;;;;;;;;;;;;;;5326620;28;19904;-68
2021/12/29 06:35:10;;;;;;;;;;;;;;;;;;5327635;28;19911;-67
2021/12/29 06:37:41;;;;;;;;;;;;;;;;;;5327098;28;20358;-68
2021/12/29 06:40:12;;;;;;;;;;;;;;;;;;5326629;28;19903;-67
2021/12/29 06:42:43;;;;;;;;;;;;;;;;;;5327165;28;20266;-67
2021/12/29 06:45:14;;;;;;;;;;;;;;;;;;5327545;28;19904;-67
2021/12/29 06:47:45;;;;;;;;;;;;;;;;;;5325705;28;19963;-68
2021/12/29 06:50:16;;;;;;;;;;;;;;;;;;5327269;28;19976;-67
2021/12/29 06:52:48;;;;;;;;;;;;;;;;;;5325823;28;19939;-67
2021/12/29 06:55:19;;;;;;;;;;;;;;;;;;5327099;28;20059;-67
2021/12/29 06:57:50;;;;;;;;;;;;;;;;;;5326726;28;19904;-67
2021/12/29 07:00:21;;;;;;;;;;;;;;;;;;5326429;28;19903;-68
2021/12/29 07:02:52;;;;;;;;;;;;;;;;;;5326505;28;20350;-68
2021/12/29 07:05:23;;;;;;;;;;;;;;;;;;5326911;28;20048;-68
2021/12/29 07:07:54;;;;;;;;;;;;;;;;;;5325701;28;19911;-68
2021/12/29 07:10:25;;;;;;;;;;;;;;;;;;5326923;28;19903;-67
2021/12/29 07:12:56;;;;;;;;;;;;;;;;;;5326310;28;20289;-67
2021/12/29 07:15:27;;;;;;;;;;;;;;;;;;5325881;28;19910;-68
2021/12/29 07:17:58;;;;;;;;;;;;;;;;;;5326318;28;19911;-67
2021/12/29 07:20:30;;;;;;;;;;;;;;;;;;5326816;28;19911;-67
2021/12/29 07:23:01;;;;;;;;;;;;;;;;;;5325260;28;19949;-68
2021/12/29 07:25:32;;;;;;;;;;;;;;;;;;5326619;28;19904;-67
2021/12/29 07:28:03;;;;;;;;;;;;;;;;;;5325284;28;19903;-67
2021/12/29 07:30:34;;;;;;;;;;;;;;;;;;5326112;28;19903;-68
2021/12/29 07:33:05;;;;;;;;;;;;;;;;;;5326327;28;19927;-68
2021/12/29 07:35:36;;;;;;;;;;;;;;;;;;5325196;28;19919;-68
2021/12/29 07:38:07;;;;;;;;;;;;;;;;;;5325972;28;20389;-68
2021/12/29 07:40:38;;;;;;;;;;;;;;;;;;5325137;28;20006;-67
2021/12/29 07:43:09;;;;;;;;;;;;;;;;;;5325351;28;19911;-67
2021/12/29 07:45:42;;;;;;;;;;;;;;;;;;5325985;28;19956;-68
2021/12/29 07:48:16;;;;;;;;;;;;;;;;;;5325745;28;20362;-68
2021/12/29 07:50:47;;;;;;;;;;;;;;;;;;5324498;28;19972;-67
2021/12/29 07:53:18;;;;;;;;;;;;;;;;;;5325774;28;19904;-68
2021/12/29 07:55:50;;;;;;;;;;;;;;;;;;5325474;28;19911;-67
2021/12/29 07:58:22;;;;;;;;;;;;;;;;;;5325281;28;19903;-68
2021/12/29 08:00:53;;;;;;;;;;;;;;;;;;5325171;28;20011;-67
2021/12/29 08:03:24;;;;;;;;;;;;;;;;;;5324994;28;19967;-67
2021/12/29 08:05:55;;;;;;;;;;;;;;;;;;5325307;28;19903;-67
2021/12/29 08:08:26;;;;;;;;;;;;;;;;;;5325820;28;19911;-68
2021/12/29 08:10:58;;;;;;;;;;;;;;;;;;5324210;28;19974;-67
2021/12/29 08:13:29;;;;;;;;;;;;;;;;;;5325681;28;20276;-67
2021/12/29 08:16:00;;;;;;;;;;;;;;;;;;5323446;28;19992;-68
2021/12/29 08:18:31;;;;;;;;;;;;;;;;;;5323553;28;20361;-67
2021/12/29 08:21:02;;;;;;;;;;;;;;;;;;5323818;28;19932;-68
2021/12/29 08:23:33;;;;;;;;;;;;;;;;;;5324306;28;20002;-68
2021/12/29 08:26:04;;;;;;;;;;;;;;;;;;5322834;28;19899;-66
2021/12/29 08:28:35;;;;;;;;;;;;;;;;;;5323678;28;19904;-68
2021/12/29 08:31:06;;;;;;;;;;;;;;;;;;5323640;28;19908;-68
2021/12/29 08:33:38;;;;;;;;;;;;;;;;;;5322686;28;19923;-68
2021/12/29 08:36:09;;;;;;;;;;;;;;;;;;5323916;28;19916;-69
2021/12/29 08:38:40;;;;;;;;;;;;;;;;;;5322565;28;19903;-68
2021/12/29 08:41:11;;;;;;;;;;;;;;;;;;5323364;28;19908;-67
2021/12/29 08:43:45;;;;;;;;;;;;;;;;;;5322379;28;19903;-68
2021/12/29 08:46:16;;;;;;;;;;;;;;;;;;5322992;28;19914;-68
2021/12/29 08:48:47;;;;;;;;;;;;;;;;;;5322698;28;19916;-68
2021/12/29 08:51:19;;;;;;;;;;;;;;;;;;5323277;28;20017;-68
2021/12/29 08:53:50;;;;;;;;;;;;;;;;;;5322359;28;19949;-68
2021/12/29 08:56:21;;;;;;;;;;;;;;;;;;5323033;28;19955;-68
2021/12/29 08:58:52;;;;;;;;;;;;;;;;;;5323110;28;19904;-68
2021/12/29 09:01:24;;;;;;;;;;;;;;;;;;5322800;28;19904;-68
2021/12/29 09:03:55;;;;;;;;;;;;;;;;;;5322836;28;20225;-67
2021/12/29 09:06:26;;;;;;;;;;;;;;;;;;5322825;28;19914;-68
2021/12/29 09:08:57;;;;;;;;;;;;;;;;;;5322479;28;20778;-68
2021/12/29 09:11:30;;;;;;;;;;;;;;;;;;5323790;28;19912;-68
2021/12/29 09:14:01;;;;;;;;;;;;;;;;;;5322091;28;19943;-68
2021/12/29 09:16:32;;;;;;;;;;;;;;;;;;5323252;28;20327;-68
2021/12/29 09:19:03;;;;;;;;;;;;;;;;;;5322919;28;19990;-68
2021/12/29 09:21:34;;;;;;;;;;;;;;;;;;5322113;28;19925;-68
2021/12/29 09:24:05;;;;;;;;;;;;;;;;;;5322752;28;20397;-67
2021/12/29 09:26:36;;;;;;;;;;;;;;;;;;5322926;28;19946;-68
2021/12/29 09:29:07;;;;;;;;;;;;;;;;;;5322027;28;19928;-68
2021/12/29 09:31:38;;;;;;;;;;;;;;;;;;5322775;28;19907;-68
2021/12/29 09:34:09;;;;;;;;;;;;;;;;;;5322752;28;20365;-68
2021/12/29 09:36:40;;;;;;;;;;;;;;;;;;5321426;28;19956;-67
2021/12/29 09:39:11;;;;;;;;;;;;;;;;;;5321860;28;19904;-67
2021/12/29 09:41:43;;;;;;;;;;;;;;;;;;5320505;28;20342;-68
2021/12/29 09:44:14;;;;;;;;;;;;;;;;;;5322323;28;19903;-67
2021/12/29 09:46:48;;;;;;;;;;;;;;;;;;5321824;28;19907;-67
2021/12/29 09:49:19;;;;;;;;;;;;;;;;;;5322993;28;19904;-67
2021/12/29 09:51:50;;;;;;;;;;;;;;;;;;5322785;28;19972;-68
2021/12/29 09:54:21;;;;;;;;;;;;;;;;;;5326877;28;19904;-68
2021/12/29 09:56:52;;;;;;;;;;;;;;;;;;5327102;28;19912;-69
2021/12/29 09:59:23;;;;;;;;;;;;;;;;;;5328420;28;20310;-68
2021/12/29 10:01:55;;;;;;;;;;;;;;;;;;5327677;28;19939;-68
2021/12/29 10:04:27;;;;;;;;;;;;;;;;;;5327394;28;20362;-68
2021/12/29 10:06:58;;;;;;;;;;;;;;;;;;5327493;28;19930;-68
2021/12/29 10:09:29;;;;;;;;;;;;;;;;;;5327882;28;20347;-67
2021/12/29 10:12:00;;;;;;;;;;;;;;;;;;5326634;28;19904;-67
2021/12/29 10:14:31;;;;;;;;;;;;;;;;;;5327775;28;19904;-67
2021/12/29 10:17:02;;;;;;;;;;;;;;;;;;5326615;28;19967;-67
2021/12/29 10:19:33;;;;;;;;;;;;;;;;;;5327715;28;20346;-68
2021/12/29 10:22:04;;;;;;;;;;;;;;;;;;5327253;28;19907;-68
2021/12/29 10:24:36;;;;;;;;;;;;;;;;;;5327011;28;19939;-67
2021/12/29 10:27:08;;;;;;;;;;;;;;;;;;5327305;28;20002;-68
2021/12/29 10:29:39;;;;;;;;;;;;;;;;;;5327301;28;19999;-68
2021/12/29 10:32:10;;;;;;;;;;;;;;;;;;5326954;28;19911;-67
2021/12/29 10:34:41;;;;;;;;;;;;;;;;;;5326937;28;19948;-69
2021/12/29 10:37:12;;;;;;;;;;;;;;;;;;5332140;27;20363;-68
2021/12/29 10:39:43;;;;;;;;;;;;;;;;;;5347136;27;19918;-68
2021/12/29 10:42:14;;;;;;;;;;;;;;;;;;5348675;27;19911;-68
2021/12/29 10:44:45;;;;;;;;;;;;;;;;;;5347858;27;19954;-69
2021/12/29 10:47:16;;;;;;;;;;;;;;;;;;5347623;27;20380;-68
2021/12/29 10:49:47;;;;;;;;;;;;;;;;;;5347969;27;19903;-68
2021/12/29 10:52:18;;;;;;;;;;;;;;;;;;5347539;27;19903;-68
2021/12/29 10:54:49;;;;;;;;;;;;;;;;;;5347861;27;19904;-68
2021/12/29 10:57:20;;;;;;;;;;;;;;;;;;5348344;27;19963;-68
2021/12/29 10:59:55;;;;;;;;;;;;;;;;;;5346848;27;19903;-68
2021/12/29 11:02:26;;;;;;;;;;;;;;;;;;5348456;27;19913;-68
2021/12/29 11:04:57;;;;;;;;;;;;;;;;;;5346852;27;20308;-69
2021/12/29 11:07:28;;;;;;;;;;;;;;;;;;5347774;27;19957;-68
2021/12/29 11:09:59;;;;;;;;;;;;;;;;;;5347714;27;19994;-68
2021/12/29 11:12:30;;;;;;;;;;;;;;;;;;5348332;27;19911;-68
2021/12/29 11:15:01;;;;;;;;;;;;;;;;;;5346616;27;20270;-68
2021/12/29 11:17:32;;;;;;;;;;;;;;;;;;5348077;27;20013;-68
2021/12/29 11:20:04;;;;;;;;;;;;;;;;;;5346839;27;19919;-68
2021/12/29 11:22:35;;;;;;;;;;;;;;;;;;5348168;27;19903;-68
2021/12/29 11:25:06;;;;;;;;;;;;;;;;;;5347288;27;19960;-69
2021/12/29 11:27:37;;;;;;;;;;;;;;;;;;5346454;27;19910;-69
2021/12/29 11:30:08;;;;;;;;;;;;;;;;;;5347954;27;19910;-68
2021/12/29 11:32:39;;;;;;;;;;;;;;;;;;5347521;27;19903;-69
2021/12/29 11:35:12;;;;;;;;;;;;;;;;;;5346925;27;19903;-68
2021/12/29 11:37:43;;;;;;;;;;;;;;;;;;5347172;27;20026;-68
2021/12/29 11:40:14;;;;;;;;;;;;;;;;;;5347690;27;19990;-69
2021/12/29 11:42:47;;;;;;;;;;;;;;;;;;5346329;27;19907;-69
2021/12/29 11:45:18;;;;;;;;;;;;;;;;;;5347812;27;19903;-69
2021/12/29 11:47:49;;;;;;;;;;;;;;;;;;5344896;27;19922;-69
2021/12/29 11:50:20;;;;;;;;;;;;;;;;;;5346522;27;19965;-68
2021/12/29 11:52:51;;;;;;;;;;;;;;;;;;5346691;27;20350;-69
2021/12/29 11:55:24;;;;;;;;;;;;;;;;;;5346563;27;19907;-68
2021/12/29 11:57:55;;;;;;;;;;;;;;;;;;5346725;27;20321;-69
2021/12/29 12:00:26;;;;;;;;;;;;;;;;;;5347032;27;19908;-68
2021/12/29 12:02:57;;;;;;;;;;;;;;;;;;5345797;27;19933;-69
2021/12/29 12:05:28;;;;;;;;;;;;;;;;;;5347257;27;19903;-69
2021/12/29 12:07:59;;;;;;;;;;;;;;;;;;5346356;27;19942;-69
2021/12/29 12:10:34;;;;;;;;;;;;;;;;;;5346062;27;19904;-68
2021/12/29 12:13:06;;;;;;;;;;;;;;;;;;5346339;27;19910;-69
2021/12/29 12:15:37;;;;;;;;;;;;;;;;;;5345973;27;19904;-69
2021/12/29 12:18:08;;;;;;;;;;;;;;;;;;5346412;27;20384;-68
2021/12/29 12:20:39;;;;;;;;;;;;;;;;;;5346356;27;20003;-69
2021/12/29 12:23:16;;;;;;;;;;;;;;;;;;5346905;27;19910;-69
2021/12/29 12:25:47;;;;;;;;;;;;;;;;;;5345361;27;19907;-70
2021/12/29 12:28:21;;;;;;;;;;;;;;;;;;5346624;27;19907;-69
2021/12/29 12:30:53;;;;;;;;;;;;;;;;;;5345175;27;19951;-69
2021/12/29 12:33:25;;;;;;;;;;;;;;;;;;5346822;27;20671;-69
2021/12/29 12:35:56;;;;;;;;;;;;;;;;;;5346055;27;19964;-69
2021/12/29 12:38:28;;;;;;;;;;;;;;;;;;5345627;27;20226;-69
2021/12/29 12:40:59;;;;;;;;;;;;;;;;;;5345827;27;19904;-69
2021/12/29 12:43:30;;;;;;;;;;;;;;;;;;5346426;27;19904;-69
2021/12/29 12:46:01;;;;;;;;;;;;;;;;;;5344927;27;19949;-69
2021/12/29 12:48:32;;;;;;;;;;;;;;;;;;5346170;27;19938;-69
2021/12/29 12:51:03;;;;;;;;;;;;;;;;;;5345699;27;19952;-71
2021/12/29 12:53:34;;;;;;;;;;;;;;;;;;5345692;27;19929;-69
2021/12/29 12:56:05;;;;;;;;;;;;;;;;;;5343687;27;19911;-69
2021/12/29 12:58:36;;;;;;;;;;;;;;;;;;5343994;27;19966;-70
2021/12/29 13:01:08;;;;;;;;;;;;;;;;;;5344706;27;20247;-69
2021/12/29 13:03:39;;;;;;;;;;;;;;;;;;5344264;27;20010;-70
2021/12/29 13:06:10;;;;;;;;;;;;;;;;;;5344230;27;19972;-69
2021/12/29 13:08:41;;;;;;;;;;;;;;;;;;5343788;27;19982;-68
2021/12/29 13:11:12;;;;;;;;;;;;;;;;;;5344828;27;19903;-68
2021/12/29 13:13:44;;;;;;;;;;;;;;;;;;5343312;27;19907;-69
2021/12/29 13:16:15;;;;;;;;;;;;;;;;;;5344584;28;19918;-69
2021/12/29 13:18:46;;;;;;;;;;;;;;;;;;5343955;28;19910;-68
2021/12/29 13:21:17;;;;;;;;;;;;;;;;;;5343609;28;19969;-68
2021/12/29 13:23:48;;;;;;;;;;;;;;;;;;5345095;28;19903;-68
2021/12/29 13:26:19;;;;;;;;;;;;;;;;;;5344494;28;20239;-68
2021/12/29 13:28:50;;;;;;;;;;;;;;;;;;5345536;27;19955;-69
2021/12/29 13:31:21;;;;;;;;;;;;;;;;;;5349624;27;20003;-69
2021/12/29 13:33:53;;;;;;;;;;;;;;;;;;5348698;27;19911;-69
2021/12/29 13:36:24;;;;;;;;;;;;;;;;;;5349950;27;19911;-69
2021/12/29 13:38:57;;;;;;;;;;;;;;;;;;5349598;27;19927;-70
2021/12/29 13:41:29;;;;;;;;;;;;;;;;;;5349606;27;19903;-69
2021/12/29 13:44:01;;;;;;;;;;;;;;;;;;5349556;27;19911;-69
2021/12/29 13:46:35;;;;;;;;;;;;;;;;;;5350106;27;19907;-69
2021/12/29 13:49:08;;;;;;;;;;;;;;;;;;5348394;27;19972;-70
2021/12/29 13:51:39;;;;;;;;;;;;;;;;;;5349271;27;19949;-70
2021/12/29 13:54:11;;;;;;;;;;;;;;;;;;5349778;27;19959;-70
2021/12/29 13:56:42;;;;;;;;;;;;;;;;;;5348316;27;19954;-69
2021/12/29 13:59:13;;;;;;;;;;;;;;;;;;5349908;27;19910;-70
2021/12/29 14:01:44;;;;;;;;;;;;;;;;;;5349297;27;19948;-70
2021/12/29 14:04:15;;;;;;;;;;;;;;;;;;5349110;27;20315;-71
2021/12/29 14:06:46;;;;;;;;;;;;;;;;;;5349292;27;19907;-71
2021/12/29 14:09:17;;;;;;;;;;;;;;;;;;5348723;27;19903;-69
2021/12/29 14:11:48;;;;;;;;;;;;;;;;;;5348986;27;19903;-69
2021/12/29 14:14:20;;;;;;;;;;;;;;;;;;5343517;27;19904;-69
2021/12/29 14:16:53;;;;;;;;;;;;;;;;;;5324834;28;19912;-69
2021/12/29 14:19:24;;;;;;;;;;;;;;;;;;5327960;28;19904;-69
2021/12/29 14:21:55;;;;;;;;;;;;;;;;;;5327342;28;20269;-68
2021/12/29 14:24:26;;;;;;;;;;;;;;;;;;5326766;28;19903;-68
2021/12/29 14:26:57;;;;;;;;;;;;;;;;;;5326844;28;20273;-68
2021/12/29 14:29:28;;;;;;;;;;;;;;;;;;5327700;28;19903;-68
2021/12/29 14:31:59;;;;;;;;;;;;;;;;;;5326278;28;19939;-68
2021/12/29 14:34:30;;;;;;;;;;;;;;;;;;5327472;28;19908;-68
2021/12/29 14:37:01;;;;;;;;;;;;;;;;;;5325695;28;20278;-69
2021/12/29 14:39:32;;;;;;;;;;;;;;;;;;5327150;28;20357;-68
2021/12/29 14:42:05;;;;;;;;;;;;;;;;;;5326858;28;19904;-68
2021/12/29 14:44:36;;;;;;;;;;;;;;;;;;5326707;28;19903;-68
2021/12/29 14:47:07;;;;;;;;;;;;;;;;;;5326302;28;19960;-68
2021/12/29 14:49:38;;;;;;;;;;;;;;;;;;5326546;28;19911;-68
2021/12/29 14:52:09;;;;;;;;;;;;;;;;;;5318011;28;19908;-68
2021/12/29 14:54:40;;;;;;;;;;;;;;;;;;5313402;28;19908;-68
2021/12/29 14:57:11;;;;;;;;;;;;;;;;;;5305393;28;19912;-69
2021/12/29 14:59:42;;;;;;;;;;;;;;;;;;5302407;28;20044;-69
2021/12/29 15:02:13;;;;;;;;;;;;;;;;;;5305037;28;20414;-69
2021/12/29 15:04:44;;;;;;;;;;;;;;;;;;5304936;28;19939;-70
2021/12/29 15:07:16;;;;;;;;;;;;;;;;;;5305034;28;19904;-69
2021/12/29 15:09:47;;;;;;;;;;;;;;;;;;5304946;28;20286;-69
2021/12/29 15:12:19;;;;;;;;;;;;;;;;;;5304398;28;19904;-69
2021/12/29 15:14:50;;;;;;;;;;;;;;;;;;5304594;28;19904;-69
2021/12/29 15:17:21;;;;;;;;;;;;;;;;;;5305328;28;20276;-70
2021/12/29 15:19:54;;;;;;;;;;;;;;;;;;5304127;28;19911;-70
2021/12/29 15:22:25;;;;;;;;;;;;;;;;;;5303764;28;19919;-70
2021/12/29 15:24:57;;;;;;;;;;;;;;;;;;5304751;28;20723;-67
2021/12/29 15:27:28;;;;;;;;;;;;;;;;;;5304796;28;19904;-69
2021/12/29 15:30:00;;;;;;;;;;;;;;;;;;5304764;28;19926;-68
2021/12/29 15:32:31;;;;;;;;;;;;;;;;;;5305386;28;20108;-68
2021/12/29 15:35:02;;;;;;;;;;;;;;;;;;5310532;28;19903;-68
2021/12/29 15:37:33;;;;;;;;;;;;;;;;;;5326267;28;19912;-68
2021/12/29 15:40:04;;;;;;;;;;;;;;;;;;5325405;28;19907;-68
2021/12/29 15:42:35;;;;;;;;;;;;;;;;;;5325445;28;19899;-68
2021/12/29 15:45:06;;;;;;;;;;;;;;;;;;5325291;28;19968;-68
2021/12/29 15:47:38;;;;;;;;;;;;;;;;;;5324391;28;20408;-68
2021/12/29 15:50:09;;;;;;;;;;;;;;;;;;5325903;28;19900;-68
2021/12/29 15:52:40;;;;;;;;;;;;;;;;;;5324734;28;20335;-68
2021/12/29 15:55:11;;;;;;;;;;;;;;;;;;5324828;28;20347;-68
2021/12/29 15:57:42;;;;;;;;;;;;;;;;;;5325665;28;19912;-69
2021/12/29 16:00:13;;;;;;;;;;;;;;;;;;5325940;28;19956;-68
2021/12/29 16:02:46;;;;;;;;;;;;;;;;;;5324268;28;19994;-69
2021/12/29 16:05:17;;;;;;;;;;;;;;;;;;5325990;28;19942;-68
2021/12/29 16:07:49;;;;;;;;;;;;;;;;;;5325237;28;19939;-71
2021/12/29 16:10:20;;;;;;;;;;;;;;;;;;5324904;28;19903;-71
2021/12/29 16:12:51;;;;;;;;;;;;;;;;;;5325027;28;19904;-70
2021/12/29 16:15:22;;;;;;;;;;;;;;;;;;5325640;28;19908;-69
2021/12/29 16:17:53;;;;;;;;;;;;;;;;;;5324225;28;19912;-70
2021/12/29 16:20:24;;;;;;;;;;;;;;;;;;5325595;28;19910;-71
2021/12/29 16:22:56;;;;;;;;;;;;;;;;;;5324070;28;19950;-71
2021/12/29 16:25:28;;;;;;;;;;;;;;;;;;5325305;28;20290;-70
2021/12/29 16:27:59;;;;;;;;;;;;;;;;;;5324994;28;20028;-71
2021/12/29 16:30:31;;;;;;;;;;;;;;;;;;5324616;28;20413;-70
2021/12/29 16:33:02;;;;;;;;;;;;;;;;;;5324848;28;20006;-70
2021/12/29 16:35:34;;;;;;;;;;;;;;;;;;5325305;28;20426;-70
2021/12/29 16:38:05;;;;;;;;;;;;;;;;;;5323992;28;19914;-70
2021/12/29 16:40:37;;;;;;;;;;;;;;;;;;5325221;28;19949;-71
2021/12/29 16:43:08;;;;;;;;;;;;;;;;;;5325004;28;20300;-71
2021/12/29 16:45:39;;;;;;;;;;;;;;;;;;5323771;28;19957;-71
2021/12/29 16:48:10;;;;;;;;;;;;;;;;;;5324807;28;19922;-71
2021/12/29 16:50:42;;;;;;;;;;;;;;;;;;5323511;28;19904;-71
2021/12/29 16:53:14;;;;;;;;;;;;;;;;;;5325140;28;20320;-71
2021/12/29 16:55:45;;;;;;;;;;;;;;;;;;5324103;28;19904;-71
2021/12/29 16:58:16;;;;;;;;;;;;;;;;;;5321998;28;19908;-71
2021/12/29 17:00:48;;;;;;;;;;;;;;;;;;5323080;28;19907;-71
2021/12/29 17:03:19;;;;;;;;;;;;;;;;;;5322321;28;19904;-71
2021/12/29 17:05:50;;;;;;;;;;;;;;;;;;5322212;28;19904;-71
2021/12/29 17:08:21;;;;;;;;;;;;;;;;;;5323572;28;19904;-71
2021/12/29 17:10:52;;;;;;;;;;;;;;;;;;5322506;28;20478;-70
2021/12/29 17:13:23;;;;;;;;;;;;;;;;;;5322911;28;20251;-72
2021/12/29 17:15:54;;;;;;;;;;;;;;;;;;5323109;28;19919;-71
2021/12/29 17:18:26;;;;;;;;;;;;;;;;;;5323558;28;20064;-70